WetterOnline ( https://www.wetteronline.de )

Wetter aktuell Boizenburg

Aktuelles Wetter: Boizenburg (46m)

6-stündlich | Neueste Meldungen
Ortszeit Temperatur Wetter
Mi, 24.04. 8:00 3.7° C bedeckt
Mi, 24.04. 2:00 3.4° C Sprühregen
Di, 23.04. 20:00 7.8° C bedeckt
Di, 23.04. 14:00 8.6° C wolkig
Di, 23.04. 8:00 2.1° C wolkig
Di, 23.04. 2:00 0.5° C bedeckt
Mo, 22.04. 20:00 5.1° C bewölkt
Mo, 22.04. 14:00 7.5° C bedeckt
Ortszeit Temperatur Wetter
Mi, 24.04. 11:00 6.4° C bedeckt
Mi, 24.04. 10:50 6.4° C bedeckt
Mi, 24.04. 10:40 6.3° C bedeckt
Mi, 24.04. 10:30 6.6° C bedeckt
Mi, 24.04. 10:20 6.6° C bedeckt
Mi, 24.04. 10:10 5.7° C bedeckt
Mi, 24.04. 10:00 6.5° C bedeckt
Mi, 24.04. 9:30 4.5° C bedeckt
Mi, 24.04. 9:00 4.7° C bedeckt
Mi, 24.04. 8:30 4.0° C bedeckt
Mi, 24.04. 8:00 3.7° C bedeckt
Ortszeit Relative Feuchte Sichtweite
Mi, 24.04. 8:00 93% 15 km
Mi, 24.04. 2:00 94% 8 km
Di, 23.04. 20:00 46% 65 km
Di, 23.04. 14:00 43% >70 km
Di, 23.04. 8:00 82% 30 km
Di, 23.04. 2:00 89% 35 km
Mo, 22.04. 20:00 71% >70 km
Mo, 22.04. 14:00 47% >70 km
Ortszeit Relative Feuchte Sichtweite
Mi, 24.04. 11:00 70% 50 km
Mi, 24.04. 10:50 70% -
Mi, 24.04. 10:40 71% -
Mi, 24.04. 10:30 72% 50 km
Mi, 24.04. 10:20 72% -
Mi, 24.04. 10:10 75% -
Mi, 24.04. 10:00 76% 40 km
Mi, 24.04. 9:30 84% 35 km
Mi, 24.04. 9:00 87% 30 km
Mi, 24.04. 8:30 89% 24 km
Mi, 24.04. 8:00 93% 15 km
Ortszeit Niederschlagsmenge Niederschlagsart
Mi, 24.04. 8:00 2 l/m2 in 12 Std. Regen
Mi, 24.04. 2:00 2 l/m2 in 6 Std. Regen
Di, 23.04. 20:00 0.1 l/m2 in 12 Std. Regen
Di, 23.04. 14:00 0.0 l/m2 in 6 Std. -
Di, 23.04. 8:00 0.0 l/m2 in 12 Std. -
Di, 23.04. 2:00 0.0 l/m2 in 6 Std. -
Mo, 22.04. 20:00 0.1 l/m2 in 12 Std. Regen
Mo, 22.04. 14:00 0.0 l/m2 in 6 Std. -
Ortszeit Niederschlagsmenge Niederschlagsart
Mi, 24.04. 11:00 0.0 l/m2 in 1 Std. -
Mi, 24.04. 10:50 keine Meldung -
Mi, 24.04. 10:40 keine Meldung -
Mi, 24.04. 10:30 0.0 l/m2 in 30 Min -
Mi, 24.04. 10:20 keine Meldung -
Mi, 24.04. 10:10 keine Meldung -
Mi, 24.04. 10:00 0.0 l/m2 in 1 Std. -
Mi, 24.04. 9:30 0.0 l/m2 in 30 Min -
Mi, 24.04. 9:00 0.0 l/m2 in 1 Std. -
Mi, 24.04. 8:30 0.0 l/m2 in 30 Min -
Mi, 24.04. 8:00 0.0 l/m2 in 1 Std. Regen
Ortszeit Stärke Spitze Richtung
km/h Bft. km/h Grad Sektor
Mi, 24.04. 8:00 7 2 22 160° S
Mi, 24.04. 2:00 13 3 37 180° S
Di, 23.04. 20:00 18 3 29 220° SW
Di, 23.04. 14:00 14 3 36 260° W
Di, 23.04. 8:00 7 2 11 260° W
Di, 23.04. 2:00 4 1 18 290° W
Mo, 22.04. 20:00 9 2 33 10° N
Mo, 22.04. 14:00 9 2 26 320° NW
Ortszeit Stärke Spitze Richtung
km/h Bft. km/h Grad Sektor
Mi, 24.04. 11:00 13 3 24 160° S
Mi, 24.04. 10:50 13 3 - 160° S
Mi, 24.04. 10:40 9 2 - 140° SO
Mi, 24.04. 10:30 9 2 24 170° S
Mi, 24.04. 10:20 9 2 - 170° S
Mi, 24.04. 10:10 11 2 - 150° SO
Mi, 24.04. 10:00 13 3 22 150° SO
Mi, 24.04. 9:30 11 2 18 180° S
Mi, 24.04. 9:00 11 2 18 190° S
Mi, 24.04. 8:30 7 2 14 170° S
Mi, 24.04. 8:00 7 2 14 160° S
Ortszeit Untergrenze Bedeckung Gattung
total tief tief mittel hoch
Mi, 24.04. 8:00 150 m 8/8 8/8 - - -
Mi, 24.04. 2:00 270 m 8/8 8/8 - - -
Di, 23.04. 20:00 780 m 8/8 8/8 - - -
Di, 23.04. 14:00 1380 m 5/8 5/8 - - -
Di, 23.04. 8:00 1500 m 8/8 6/8 - - -
Di, 23.04. 2:00 4200 m 8/8 8/8 - - -
Mo, 22.04. 20:00 1800 m 7/8 7/8 - - -
Mo, 22.04. 14:00 1410 m 8/8 8/8 - - -
Ortszeit Bedeckungsgrad in Achtel und Wolkenuntergrenze
Mi, 24.04. 11:00 2(660m) 8(1800m) 8(2700m)
Mi, 24.04. 10:50 2(660m) 8(1800m) 8(2700m)
Mi, 24.04. 10:40 8
Mi, 24.04. 10:30 2(570m) 8(1800m) 8(3000m)
Mi, 24.04. 10:20 2(570m) 8(1800m) 8(3000m)
Mi, 24.04. 10:10 8
Mi, 24.04. 10:00 3(570m) 8(2100m) 8(2700m)
Mi, 24.04. 9:30 4(420m) 5(870m) 8(2100m)
Mi, 24.04. 9:00 3(300m) 7(2100m) 8(2400m)
Mi, 24.04. 8:30 1(1050m) 6(1800m) 8(2400m)
Mi, 24.04. 8:00 5(150m) 7(660m) 8(2100m)
Ortszeit Luftdruck NN (hPa) Tendenz (hPa in 3 Std.)
Mi, 24.04. 8:00 1006 - 1,1
Mi, 24.04. 2:00 1009 - 2,6
Di, 23.04. 20:00 1013 - 2,3
Di, 23.04. 14:00 1018 - 2,0
Di, 23.04. 8:00 1022 - 0,7
Di, 23.04. 2:00 1024 - 0,7
Mo, 22.04. 20:00 1024 - 0,1
Mo, 22.04. 14:00 1024 - 1,1
Ortszeit Luftdruck NN (hPa) Tendenz (hPa in 3 Std.)
Mi, 24.04. 11:00 1005 - 0,7
Mi, 24.04. 10:50 1005 keine Meldung
Mi, 24.04. 10:40 1005 keine Meldung
Mi, 24.04. 10:30 1005 - 1,0
Mi, 24.04. 10:20 1005 keine Meldung
Mi, 24.04. 10:10 1006 keine Meldung
Mi, 24.04. 10:00 1006 - 1,0
Mi, 24.04. 9:30 1006 - 0,8
Mi, 24.04. 9:00 1006 - 0,7
Mi, 24.04. 8:30 1006 - 1,0
Mi, 24.04. 8:00 1006 - 1,1
Ortszeit Schneehöhe (cm)
Mi, 24.04. 8:00 0
Mi, 24.04. 2:00 0
Di, 23.04. 20:00 0
Di, 23.04. 14:00 0
Di, 23.04. 8:00 0
Di, 23.04. 2:00 0
Mo, 22.04. 20:00 0
Mo, 22.04. 14:00 0
Ortszeit Schneehöhe (cm)
Mi, 24.04. 11:00 0
Mi, 24.04. 10:50 0
Mi, 24.04. 10:40 -
Mi, 24.04. 10:30 0
Mi, 24.04. 10:20 0
Mi, 24.04. 10:10 -
Mi, 24.04. 10:00 0
Mi, 24.04. 9:30 0
Mi, 24.04. 9:00 0
Mi, 24.04. 8:30 0
Mi, 24.04. 8:00 0
Link zu dieser Seite / Seite empfehlen

Das Wetter in ...